<?xml version="1.0" encoding="UTF-8" standalone="no" ?>
<gpx xmlns="http://www.topografix.com/GPX/1/1" xmlns:xsi="http://www.w3.org/2001/XMLSchema-instance" xsi:schemaLocation="http://www.topografix.com/GPX/1/1 http://www.topografix.com/GPX/1/1/gpx.xsd" version="1.1" creator="VisuGPX - https://www.visugpx.com">
  <metadata>
    <name>ChapelleE_Vaillantiere_8-12km</name>
    <desc><![CDATA[gnerando idor: 8396171_8809195_10803642]]></desc>
  </metadata>
  <trk>
    <name><![CDATA[ChapelleE_BrosseSuceVaillantiere_12km-8396171]]></name>
    <extensions>
      <line xmlns="http://www.topografix.com/GPX/gpx_style/0/2">
        <color>FF0000</color>
        <width>4</width>
      </line>
    </extensions>
    <trkseg>
      <trkpt lat="47.33727" lon="-1.57166">
        <ele>38</ele>
        <time>2023-10-26T07:02:46Z</time>
      </trkpt>
      <trkpt lat="47.33727" lon="-1.57166">
        <ele>38</ele>
        <time>2023-10-26T07:02:46Z</time>
      </trkpt>
      <trkpt lat="47.33725" lon="-1.57164">
        <ele>38</ele>
        <time>2023-10-26T07:02:49Z</time>
      </trkpt>
      <trkpt lat="47.33725" lon="-1.57164">
        <ele>38</ele>
        <time>2023-10-26T07:02:49Z</time>
      </trkpt>
      <trkpt lat="47.33732" lon="-1.57156">
        <ele>38</ele>
        <time>2023-10-26T07:03:01Z</time>
      </trkpt>
      <trkpt lat="47.33734" lon="-1.57158">
        <ele>38</ele>
        <time>2023-10-26T07:03:04Z</time>
      </trkpt>
      <trkpt lat="47.33735" lon="-1.57156">
        <ele>38</ele>
        <time>2023-10-26T07:03:07Z</time>
      </trkpt>
      <trkpt lat="47.33744" lon="-1.5715">
        <ele>38</ele>
        <time>2023-10-26T07:03:20Z</time>
      </trkpt>
      <trkpt lat="47.3375" lon="-1.57095">
        <ele>37</ele>
        <time>2023-10-26T07:04:10Z</time>
      </trkpt>
      <trkpt lat="47.3375" lon="-1.57092">
        <ele>37</ele>
        <time>2023-10-26T07:04:13Z</time>
      </trkpt>
      <trkpt lat="47.33756" lon="-1.5705">
        <ele>36</ele>
        <time>2023-10-26T07:04:52Z</time>
      </trkpt>
      <trkpt lat="47.33757" lon="-1.57047">
        <ele>36</ele>
        <time>2023-10-26T07:04:55Z</time>
      </trkpt>
      <trkpt lat="47.3376" lon="-1.57003">
        <ele>35</ele>
        <time>2023-10-26T07:05:35Z</time>
      </trkpt>
      <trkpt lat="47.33762" lon="-1.56982">
        <ele>34</ele>
        <time>2023-10-26T07:05:54Z</time>
      </trkpt>
      <trkpt lat="47.33765" lon="-1.56966">
        <ele>33</ele>
        <time>2023-10-26T07:06:09Z</time>
      </trkpt>
      <trkpt lat="47.33775" lon="-1.56783">
        <ele>31</ele>
        <time>2023-10-26T07:08:55Z</time>
      </trkpt>
      <trkpt lat="47.33782" lon="-1.56736">
        <ele>32</ele>
        <time>2023-10-26T07:09:38Z</time>
      </trkpt>
      <trkpt lat="47.33793" lon="-1.56683">
        <ele>33</ele>
        <time>2023-10-26T07:10:28Z</time>
      </trkpt>
      <trkpt lat="47.3381" lon="-1.56584">
        <ele>33</ele>
        <time>2023-10-26T07:12:01Z</time>
      </trkpt>
      <trkpt lat="47.33818" lon="-1.56548">
        <ele>34</ele>
        <time>2023-10-26T07:12:35Z</time>
      </trkpt>
      <trkpt lat="47.33828" lon="-1.56523">
        <ele>34</ele>
        <time>2023-10-26T07:13:01Z</time>
      </trkpt>
      <trkpt lat="47.33831" lon="-1.56502">
        <ele>34</ele>
        <time>2023-10-26T07:13:21Z</time>
      </trkpt>
      <trkpt lat="47.33843" lon="-1.56455">
        <ele>33</ele>
        <time>2023-10-26T07:14:06Z</time>
      </trkpt>
      <trkpt lat="47.3385" lon="-1.56362">
        <ele>31</ele>
        <time>2023-10-26T07:15:31Z</time>
      </trkpt>
      <trkpt lat="47.33848" lon="-1.56315">
        <ele>30</ele>
        <time>2023-10-26T07:16:13Z</time>
      </trkpt>
      <trkpt lat="47.33828" lon="-1.5613">
        <ele>24</ele>
        <time>2023-10-26T07:19:03Z</time>
      </trkpt>
      <trkpt lat="47.33872" lon="-1.56101">
        <ele>23</ele>
        <time>2023-10-26T07:20:07Z</time>
      </trkpt>
      <trkpt lat="47.33899" lon="-1.56086">
        <ele>22</ele>
        <time>2023-10-26T07:20:46Z</time>
      </trkpt>
      <trkpt lat="47.33941" lon="-1.56073">
        <ele>19</ele>
        <time>2023-10-26T07:21:43Z</time>
      </trkpt>
      <trkpt lat="47.3395" lon="-1.56067">
        <ele>18</ele>
        <time>2023-10-26T07:21:56Z</time>
      </trkpt>
      <trkpt lat="47.33965" lon="-1.56051">
        <ele>16</ele>
        <time>2023-10-26T07:22:21Z</time>
      </trkpt>
      <trkpt lat="47.33974" lon="-1.56034">
        <ele>15</ele>
        <time>2023-10-26T07:22:40Z</time>
      </trkpt>
      <trkpt lat="47.33975" lon="-1.56027">
        <ele>15</ele>
        <time>2023-10-26T07:22:47Z</time>
      </trkpt>
      <trkpt lat="47.33993" lon="-1.55996">
        <ele>12</ele>
        <time>2023-10-26T07:23:24Z</time>
      </trkpt>
      <trkpt lat="47.34002" lon="-1.55966">
        <ele>11</ele>
        <time>2023-10-26T07:23:53Z</time>
      </trkpt>
      <trkpt lat="47.34017" lon="-1.55951">
        <ele>11</ele>
        <time>2023-10-26T07:24:17Z</time>
      </trkpt>
      <trkpt lat="47.34032" lon="-1.55951">
        <ele>11</ele>
        <time>2023-10-26T07:24:38Z</time>
      </trkpt>
      <trkpt lat="47.34037" lon="-1.55955">
        <ele>11</ele>
        <time>2023-10-26T07:24:45Z</time>
      </trkpt>
      <trkpt lat="47.3405" lon="-1.55948">
        <ele>12</ele>
        <time>2023-10-26T07:25:04Z</time>
      </trkpt>
      <trkpt lat="47.34058" lon="-1.55931">
        <ele>12</ele>
        <time>2023-10-26T07:25:22Z</time>
      </trkpt>
      <trkpt lat="47.34064" lon="-1.55911">
        <ele>13</ele>
        <time>2023-10-26T07:25:42Z</time>
      </trkpt>
      <trkpt lat="47.34065" lon="-1.55887">
        <ele>13</ele>
        <time>2023-10-26T07:26:04Z</time>
      </trkpt>
      <trkpt lat="47.3406" lon="-1.55864">
        <ele>13</ele>
        <time>2023-10-26T07:26:26Z</time>
      </trkpt>
      <trkpt lat="47.34056" lon="-1.55853">
        <ele>13</ele>
        <time>2023-10-26T07:26:37Z</time>
      </trkpt>
      <trkpt lat="47.34052" lon="-1.55823">
        <ele>13</ele>
        <time>2023-10-26T07:27:05Z</time>
      </trkpt>
      <trkpt lat="47.3405" lon="-1.55778">
        <ele>14</ele>
        <time>2023-10-26T07:27:45Z</time>
      </trkpt>
      <trkpt lat="47.34054" lon="-1.55743">
        <ele>15</ele>
        <time>2023-10-26T07:28:17Z</time>
      </trkpt>
      <trkpt lat="47.34064" lon="-1.55698">
        <ele>16</ele>
        <time>2023-10-26T07:29:00Z</time>
      </trkpt>
      <trkpt lat="47.34065" lon="-1.55685">
        <ele>16</ele>
        <time>2023-10-26T07:29:12Z</time>
      </trkpt>
      <trkpt lat="47.34069" lon="-1.55674">
        <ele>16</ele>
        <time>2023-10-26T07:29:23Z</time>
      </trkpt>
      <trkpt lat="47.34083" lon="-1.55611">
        <ele>16</ele>
        <time>2023-10-26T07:30:23Z</time>
      </trkpt>
      <trkpt lat="47.34111" lon="-1.55525">
        <ele>15</ele>
        <time>2023-10-26T07:31:50Z</time>
      </trkpt>
      <trkpt lat="47.34131" lon="-1.55487">
        <ele>16</ele>
        <time>2023-10-26T07:32:33Z</time>
      </trkpt>
      <trkpt lat="47.34222" lon="-1.55351">
        <ele>17</ele>
        <time>2023-10-26T07:35:26Z</time>
      </trkpt>
      <trkpt lat="47.34289" lon="-1.5525">
        <ele>14</ele>
        <time>2023-10-26T07:37:34Z</time>
      </trkpt>
      <trkpt lat="47.34293" lon="-1.55249">
        <ele>14</ele>
        <time>2023-10-26T07:37:39Z</time>
      </trkpt>
      <trkpt lat="47.34297" lon="-1.55244">
        <ele>14</ele>
        <time>2023-10-26T07:37:46Z</time>
      </trkpt>
      <trkpt lat="47.34304" lon="-1.55242">
        <ele>14</ele>
        <time>2023-10-26T07:37:56Z</time>
      </trkpt>
      <trkpt lat="47.34311" lon="-1.55246">
        <ele>14</ele>
        <time>2023-10-26T07:38:06Z</time>
      </trkpt>
      <trkpt lat="47.34313" lon="-1.55245">
        <ele>14</ele>
        <time>2023-10-26T07:38:09Z</time>
      </trkpt>
      <trkpt lat="47.3432" lon="-1.55245">
        <ele>15</ele>
        <time>2023-10-26T07:38:18Z</time>
      </trkpt>
      <trkpt lat="47.3435" lon="-1.55256">
        <ele>15</ele>
        <time>2023-10-26T07:38:59Z</time>
      </trkpt>
      <trkpt lat="47.34395" lon="-1.55254">
        <ele>16</ele>
        <time>2023-10-26T07:39:59Z</time>
      </trkpt>
      <trkpt lat="47.34438" lon="-1.55269">
        <ele>17</ele>
        <time>2023-10-26T07:40:58Z</time>
      </trkpt>
      <trkpt lat="47.34459" lon="-1.55275">
        <ele>18</ele>
        <time>2023-10-26T07:41:27Z</time>
      </trkpt>
      <trkpt lat="47.34476" lon="-1.55276">
        <ele>19</ele>
        <time>2023-10-26T07:41:49Z</time>
      </trkpt>
      <trkpt lat="47.34489" lon="-1.55271">
        <ele>20</ele>
        <time>2023-10-26T07:42:07Z</time>
      </trkpt>
      <trkpt lat="47.34508" lon="-1.55269">
        <ele>21</ele>
        <time>2023-10-26T07:42:33Z</time>
      </trkpt>
      <trkpt lat="47.3453" lon="-1.5526">
        <ele>22</ele>
        <time>2023-10-26T07:43:03Z</time>
      </trkpt>
      <trkpt lat="47.34549" lon="-1.55246">
        <ele>23</ele>
        <time>2023-10-26T07:43:32Z</time>
      </trkpt>
      <trkpt lat="47.34574" lon="-1.55258">
        <ele>25</ele>
        <time>2023-10-26T07:44:07Z</time>
      </trkpt>
      <trkpt lat="47.3459" lon="-1.55298">
        <ele>26</ele>
        <time>2023-10-26T07:44:49Z</time>
      </trkpt>
      <trkpt lat="47.34612" lon="-1.55331">
        <ele>27</ele>
        <time>2023-10-26T07:45:31Z</time>
      </trkpt>
      <trkpt lat="47.34649" lon="-1.55361">
        <ele>29</ele>
        <time>2023-10-26T07:46:27Z</time>
      </trkpt>
      <trkpt lat="47.34671" lon="-1.55374">
        <ele>30</ele>
        <time>2023-10-26T07:46:58Z</time>
      </trkpt>
      <trkpt lat="47.34704" lon="-1.55373">
        <ele>30</ele>
        <time>2023-10-26T07:47:43Z</time>
      </trkpt>
      <trkpt lat="47.34792" lon="-1.55357">
        <ele>31</ele>
        <time>2023-10-26T07:49:41Z</time>
      </trkpt>
      <trkpt lat="47.34814" lon="-1.55343">
        <ele>31</ele>
        <time>2023-10-26T07:50:13Z</time>
      </trkpt>
      <trkpt lat="47.34839" lon="-1.55321">
        <ele>31</ele>
        <time>2023-10-26T07:50:52Z</time>
      </trkpt>
      <trkpt lat="47.349" lon="-1.55274">
        <ele>31</ele>
        <time>2023-10-26T07:52:23Z</time>
      </trkpt>
      <trkpt lat="47.34907" lon="-1.5527">
        <ele>31</ele>
        <time>2023-10-26T07:52:34Z</time>
      </trkpt>
      <trkpt lat="47.34925" lon="-1.55265">
        <ele>32</ele>
        <time>2023-10-26T07:52:58Z</time>
      </trkpt>
      <trkpt lat="47.3496" lon="-1.55247">
        <ele>33</ele>
        <time>2023-10-26T07:53:47Z</time>
      </trkpt>
      <trkpt lat="47.34993" lon="-1.55234">
        <ele>34</ele>
        <time>2023-10-26T07:54:33Z</time>
      </trkpt>
      <trkpt lat="47.34999" lon="-1.55233">
        <ele>34</ele>
        <time>2023-10-26T07:54:41Z</time>
      </trkpt>
      <trkpt lat="47.35019" lon="-1.55223">
        <ele>34</ele>
        <time>2023-10-26T07:55:09Z</time>
      </trkpt>
      <trkpt lat="47.35052" lon="-1.55201">
        <ele>35</ele>
        <time>2023-10-26T07:55:58Z</time>
      </trkpt>
      <trkpt lat="47.35092" lon="-1.55182">
        <ele>36</ele>
        <time>2023-10-26T07:56:54Z</time>
      </trkpt>
      <trkpt lat="47.35116" lon="-1.55162">
        <ele>37</ele>
        <time>2023-10-26T07:57:30Z</time>
      </trkpt>
      <trkpt lat="47.35121" lon="-1.55147">
        <ele>37</ele>
        <time>2023-10-26T07:57:46Z</time>
      </trkpt>
      <trkpt lat="47.35129" lon="-1.5511">
        <ele>37</ele>
        <time>2023-10-26T07:58:21Z</time>
      </trkpt>
      <trkpt lat="47.35132" lon="-1.55105">
        <ele>37</ele>
        <time>2023-10-26T07:58:27Z</time>
      </trkpt>
      <trkpt lat="47.35134" lon="-1.55076">
        <ele>37</ele>
        <time>2023-10-26T07:58:53Z</time>
      </trkpt>
      <trkpt lat="47.35143" lon="-1.55038">
        <ele>36</ele>
        <time>2023-10-26T07:59:29Z</time>
      </trkpt>
      <trkpt lat="47.35176" lon="-1.54942">
        <ele>35</ele>
        <time>2023-10-26T08:01:07Z</time>
      </trkpt>
      <trkpt lat="47.35186" lon="-1.5492">
        <ele>35</ele>
        <time>2023-10-26T08:01:31Z</time>
      </trkpt>
      <trkpt lat="47.35239" lon="-1.54828">
        <ele>34</ele>
        <time>2023-10-26T08:03:20Z</time>
      </trkpt>
      <trkpt lat="47.35256" lon="-1.54791">
        <ele>34</ele>
        <time>2023-10-26T08:04:00Z</time>
      </trkpt>
      <trkpt lat="47.35248" lon="-1.54778">
        <ele>34</ele>
        <time>2023-10-26T08:04:16Z</time>
      </trkpt>
      <trkpt lat="47.35236" lon="-1.54753">
        <ele>32</ele>
        <time>2023-10-26T08:04:44Z</time>
      </trkpt>
      <trkpt lat="47.35223" lon="-1.54718">
        <ele>31</ele>
        <time>2023-10-26T08:05:20Z</time>
      </trkpt>
      <trkpt lat="47.35218" lon="-1.54699">
        <ele>30</ele>
        <time>2023-10-26T08:05:38Z</time>
      </trkpt>
      <trkpt lat="47.35217" lon="-1.54692">
        <ele>30</ele>
        <time>2023-10-26T08:05:45Z</time>
      </trkpt>
      <trkpt lat="47.35233" lon="-1.54652">
        <ele>30</ele>
        <time>2023-10-26T08:06:27Z</time>
      </trkpt>
      <trkpt lat="47.35242" lon="-1.54617">
        <ele>30</ele>
        <time>2023-10-26T08:07:01Z</time>
      </trkpt>
      <trkpt lat="47.35261" lon="-1.54527">
        <ele>31</ele>
        <time>2023-10-26T08:08:26Z</time>
      </trkpt>
      <trkpt lat="47.35271" lon="-1.54488">
        <ele>31</ele>
        <time>2023-10-26T08:09:04Z</time>
      </trkpt>
      <trkpt lat="47.35311" lon="-1.54437">
        <ele>32</ele>
        <time>2023-10-26T08:10:14Z</time>
      </trkpt>
      <trkpt lat="47.35329" lon="-1.54411">
        <ele>33</ele>
        <time>2023-10-26T08:10:48Z</time>
      </trkpt>
      <trkpt lat="47.35331" lon="-1.54403">
        <ele>33</ele>
        <time>2023-10-26T08:10:55Z</time>
      </trkpt>
      <trkpt lat="47.35364" lon="-1.54357">
        <ele>33</ele>
        <time>2023-10-26T08:11:56Z</time>
      </trkpt>
      <trkpt lat="47.35393" lon="-1.54297">
        <ele>32</ele>
        <time>2023-10-26T08:13:03Z</time>
      </trkpt>
      <trkpt lat="47.35427" lon="-1.54257">
        <ele>33</ele>
        <time>2023-10-26T08:14:01Z</time>
      </trkpt>
      <trkpt lat="47.35457" lon="-1.54228">
        <ele>32</ele>
        <time>2023-10-26T08:14:49Z</time>
      </trkpt>
      <trkpt lat="47.35498" lon="-1.54183">
        <ele>33</ele>
        <time>2023-10-26T08:15:57Z</time>
      </trkpt>
      <trkpt lat="47.35514" lon="-1.54162">
        <ele>34</ele>
        <time>2023-10-26T08:16:25Z</time>
      </trkpt>
      <trkpt lat="47.35553" lon="-1.54126">
        <ele>34</ele>
        <time>2023-10-26T08:17:27Z</time>
      </trkpt>
      <trkpt lat="47.35565" lon="-1.54108">
        <ele>34</ele>
        <time>2023-10-26T08:17:50Z</time>
      </trkpt>
      <trkpt lat="47.35574" lon="-1.54088">
        <ele>34</ele>
        <time>2023-10-26T08:18:11Z</time>
      </trkpt>
      <trkpt lat="47.35589" lon="-1.54035">
        <ele>33</ele>
        <time>2023-10-26T08:19:03Z</time>
      </trkpt>
      <trkpt lat="47.35589" lon="-1.54023">
        <ele>33</ele>
        <time>2023-10-26T08:19:14Z</time>
      </trkpt>
      <trkpt lat="47.35597" lon="-1.54017">
        <ele>33</ele>
        <time>2023-10-26T08:19:26Z</time>
      </trkpt>
      <trkpt lat="47.35619" lon="-1.54023">
        <ele>32</ele>
        <time>2023-10-26T08:19:56Z</time>
      </trkpt>
      <trkpt lat="47.35694" lon="-1.54057">
        <ele>31</ele>
        <time>2023-10-26T08:21:41Z</time>
      </trkpt>
      <trkpt lat="47.35745" lon="-1.54076">
        <ele>32</ele>
        <time>2023-10-26T08:22:51Z</time>
      </trkpt>
      <trkpt lat="47.35745" lon="-1.54099">
        <ele>32</ele>
        <time>2023-10-26T08:23:12Z</time>
      </trkpt>
      <trkpt lat="47.35741" lon="-1.54118">
        <ele>32</ele>
        <time>2023-10-26T08:23:29Z</time>
      </trkpt>
      <trkpt lat="47.35741" lon="-1.54149">
        <ele>32</ele>
        <time>2023-10-26T08:23:58Z</time>
      </trkpt>
      <trkpt lat="47.35748" lon="-1.54194">
        <ele>31</ele>
        <time>2023-10-26T08:24:39Z</time>
      </trkpt>
      <trkpt lat="47.35751" lon="-1.54199">
        <ele>31</ele>
        <time>2023-10-26T08:24:45Z</time>
      </trkpt>
      <trkpt lat="47.35749" lon="-1.5424">
        <ele>29</ele>
        <time>2023-10-26T08:25:22Z</time>
      </trkpt>
      <trkpt lat="47.35752" lon="-1.54264">
        <ele>29</ele>
        <time>2023-10-26T08:25:45Z</time>
      </trkpt>
      <trkpt lat="47.35752" lon="-1.54295">
        <ele>29</ele>
        <time>2023-10-26T08:26:13Z</time>
      </trkpt>
      <trkpt lat="47.35757" lon="-1.54336">
        <ele>29</ele>
        <time>2023-10-26T08:26:50Z</time>
      </trkpt>
      <trkpt lat="47.35769" lon="-1.54395">
        <ele>30</ele>
        <time>2023-10-26T08:27:46Z</time>
      </trkpt>
      <trkpt lat="47.35779" lon="-1.54421">
        <ele>30</ele>
        <time>2023-10-26T08:28:13Z</time>
      </trkpt>
      <trkpt lat="47.35797" lon="-1.54496">
        <ele>29</ele>
        <time>2023-10-26T08:29:25Z</time>
      </trkpt>
      <trkpt lat="47.35801" lon="-1.54502">
        <ele>29</ele>
        <time>2023-10-26T08:29:32Z</time>
      </trkpt>
      <trkpt lat="47.35821" lon="-1.54559">
        <ele>31</ele>
        <time>2023-10-26T08:30:30Z</time>
      </trkpt>
      <trkpt lat="47.35842" lon="-1.54611">
        <ele>31</ele>
        <time>2023-10-26T08:31:25Z</time>
      </trkpt>
      <trkpt lat="47.35842" lon="-1.54613">
        <ele>31</ele>
        <time>2023-10-26T08:31:27Z</time>
      </trkpt>
      <trkpt lat="47.35872" lon="-1.54692">
        <ele>30</ele>
        <time>2023-10-26T08:32:49Z</time>
      </trkpt>
      <trkpt lat="47.3588" lon="-1.54784">
        <ele>30</ele>
        <time>2023-10-26T08:34:13Z</time>
      </trkpt>
      <trkpt lat="47.35911" lon="-1.54848">
        <ele>30</ele>
        <time>2023-10-26T08:35:24Z</time>
      </trkpt>
      <trkpt lat="47.35923" lon="-1.54879">
        <ele>29</ele>
        <time>2023-10-26T08:35:56Z</time>
      </trkpt>
      <trkpt lat="47.35912" lon="-1.54908">
        <ele>29</ele>
        <time>2023-10-26T08:36:26Z</time>
      </trkpt>
      <trkpt lat="47.35907" lon="-1.54934">
        <ele>29</ele>
        <time>2023-10-26T08:36:51Z</time>
      </trkpt>
      <trkpt lat="47.35893" lon="-1.54957">
        <ele>30</ele>
        <time>2023-10-26T08:37:19Z</time>
      </trkpt>
      <trkpt lat="47.35866" lon="-1.55016">
        <ele>31</ele>
        <time>2023-10-26T08:38:23Z</time>
      </trkpt>
      <trkpt lat="47.35832" lon="-1.55101">
        <ele>31</ele>
        <time>2023-10-26T08:39:52Z</time>
      </trkpt>
      <trkpt lat="47.35793" lon="-1.55169">
        <ele>31</ele>
        <time>2023-10-26T08:41:13Z</time>
      </trkpt>
      <trkpt lat="47.35781" lon="-1.55198">
        <ele>32</ele>
        <time>2023-10-26T08:41:43Z</time>
      </trkpt>
      <trkpt lat="47.35774" lon="-1.55401">
        <ele>34</ele>
        <time>2023-10-26T08:44:47Z</time>
      </trkpt>
      <trkpt lat="47.3577" lon="-1.55428">
        <ele>34</ele>
        <time>2023-10-26T08:45:12Z</time>
      </trkpt>
      <trkpt lat="47.35757" lon="-1.55447">
        <ele>34</ele>
        <time>2023-10-26T08:45:37Z</time>
      </trkpt>
      <trkpt lat="47.3569" lon="-1.55502">
        <ele>38</ele>
        <time>2023-10-26T08:47:19Z</time>
      </trkpt>
      <trkpt lat="47.35662" lon="-1.55532">
        <ele>39</ele>
        <time>2023-10-26T08:48:05Z</time>
      </trkpt>
      <trkpt lat="47.35627" lon="-1.55548">
        <ele>38</ele>
        <time>2023-10-26T08:48:54Z</time>
      </trkpt>
      <trkpt lat="47.35596" lon="-1.55564">
        <ele>38</ele>
        <time>2023-10-26T08:49:38Z</time>
      </trkpt>
      <trkpt lat="47.35569" lon="-1.5557">
        <ele>38</ele>
        <time>2023-10-26T08:50:14Z</time>
      </trkpt>
      <trkpt lat="47.35482" lon="-1.55609">
        <ele>37</ele>
        <time>2023-10-26T08:52:16Z</time>
      </trkpt>
      <trkpt lat="47.35468" lon="-1.55612">
        <ele>36</ele>
        <time>2023-10-26T08:52:34Z</time>
      </trkpt>
      <trkpt lat="47.35421" lon="-1.55636">
        <ele>36</ele>
        <time>2023-10-26T08:53:41Z</time>
      </trkpt>
      <trkpt lat="47.35422" lon="-1.55639">
        <ele>36</ele>
        <time>2023-10-26T08:53:44Z</time>
      </trkpt>
      <trkpt lat="47.3542" lon="-1.55638">
        <ele>36</ele>
        <time>2023-10-26T08:53:47Z</time>
      </trkpt>
      <trkpt lat="47.3542" lon="-1.55637">
        <ele>36</ele>
        <time>2023-10-26T08:53:48Z</time>
      </trkpt>
      <trkpt lat="47.35423" lon="-1.55671">
        <ele>36</ele>
        <time>2023-10-26T08:54:19Z</time>
      </trkpt>
      <trkpt lat="47.35424" lon="-1.55707">
        <ele>35</ele>
        <time>2023-10-26T08:54:51Z</time>
      </trkpt>
      <trkpt lat="47.35433" lon="-1.55813">
        <ele>35</ele>
        <time>2023-10-26T08:56:28Z</time>
      </trkpt>
      <trkpt lat="47.35431" lon="-1.5584">
        <ele>35</ele>
        <time>2023-10-26T08:56:52Z</time>
      </trkpt>
      <trkpt lat="47.35418" lon="-1.55851">
        <ele>34</ele>
        <time>2023-10-26T08:57:12Z</time>
      </trkpt>
      <trkpt lat="47.35404" lon="-1.55857">
        <ele>34</ele>
        <time>2023-10-26T08:57:32Z</time>
      </trkpt>
      <trkpt lat="47.35385" lon="-1.5587">
        <ele>34</ele>
        <time>2023-10-26T08:58:00Z</time>
      </trkpt>
      <trkpt lat="47.35344" lon="-1.55885">
        <ele>34</ele>
        <time>2023-10-26T08:58:56Z</time>
      </trkpt>
      <trkpt lat="47.35304" lon="-1.55904">
        <ele>34</ele>
        <time>2023-10-26T08:59:52Z</time>
      </trkpt>
      <trkpt lat="47.35257" lon="-1.55923">
        <ele>33</ele>
        <time>2023-10-26T09:00:57Z</time>
      </trkpt>
      <trkpt lat="47.35194" lon="-1.55944">
        <ele>35</ele>
        <time>2023-10-26T09:02:23Z</time>
      </trkpt>
      <trkpt lat="47.35166" lon="-1.55958">
        <ele>35</ele>
        <time>2023-10-26T09:03:03Z</time>
      </trkpt>
      <trkpt lat="47.35133" lon="-1.55979">
        <ele>36</ele>
        <time>2023-10-26T09:03:51Z</time>
      </trkpt>
      <trkpt lat="47.35114" lon="-1.56009">
        <ele>37</ele>
        <time>2023-10-26T09:04:28Z</time>
      </trkpt>
      <trkpt lat="47.35093" lon="-1.56054">
        <ele>38</ele>
        <time>2023-10-26T09:05:17Z</time>
      </trkpt>
      <trkpt lat="47.35085" lon="-1.56126">
        <ele>39</ele>
        <time>2023-10-26T09:06:23Z</time>
      </trkpt>
      <trkpt lat="47.35088" lon="-1.56266">
        <ele>40</ele>
        <time>2023-10-26T09:08:30Z</time>
      </trkpt>
      <trkpt lat="47.35094" lon="-1.56309">
        <ele>39</ele>
        <time>2023-10-26T09:09:10Z</time>
      </trkpt>
      <trkpt lat="47.35105" lon="-1.56355">
        <ele>38</ele>
        <time>2023-10-26T09:09:54Z</time>
      </trkpt>
      <trkpt lat="47.35153" lon="-1.56475">
        <ele>35</ele>
        <time>2023-10-26T09:12:00Z</time>
      </trkpt>
      <trkpt lat="47.35172" lon="-1.56497">
        <ele>35</ele>
        <time>2023-10-26T09:12:32Z</time>
      </trkpt>
      <trkpt lat="47.35181" lon="-1.56537">
        <ele>32</ele>
        <time>2023-10-26T09:13:10Z</time>
      </trkpt>
      <trkpt lat="47.35181" lon="-1.56564">
        <ele>30</ele>
        <time>2023-10-26T09:13:34Z</time>
      </trkpt>
      <trkpt lat="47.35174" lon="-1.56598">
        <ele>26</ele>
        <time>2023-10-26T09:14:06Z</time>
      </trkpt>
      <trkpt lat="47.35139" lon="-1.56666">
        <ele>17</ele>
        <time>2023-10-26T09:15:24Z</time>
      </trkpt>
      <trkpt lat="47.35134" lon="-1.56683">
        <ele>17</ele>
        <time>2023-10-26T09:15:40Z</time>
      </trkpt>
      <trkpt lat="47.35133" lon="-1.567">
        <ele>17</ele>
        <time>2023-10-26T09:15:56Z</time>
      </trkpt>
      <trkpt lat="47.35145" lon="-1.56725">
        <ele>16</ele>
        <time>2023-10-26T09:16:24Z</time>
      </trkpt>
      <trkpt lat="47.35153" lon="-1.56753">
        <ele>15</ele>
        <time>2023-10-26T09:16:51Z</time>
      </trkpt>
      <trkpt lat="47.35152" lon="-1.56781">
        <ele>15</ele>
        <time>2023-10-26T09:17:16Z</time>
      </trkpt>
      <trkpt lat="47.35147" lon="-1.56815">
        <ele>16</ele>
        <time>2023-10-26T09:17:48Z</time>
      </trkpt>
      <trkpt lat="47.3516" lon="-1.56868">
        <ele>15</ele>
        <time>2023-10-26T09:18:39Z</time>
      </trkpt>
      <trkpt lat="47.3517" lon="-1.56894">
        <ele>14</ele>
        <time>2023-10-26T09:19:06Z</time>
      </trkpt>
      <trkpt lat="47.35173" lon="-1.56916">
        <ele>15</ele>
        <time>2023-10-26T09:19:26Z</time>
      </trkpt>
      <trkpt lat="47.35173" lon="-1.56943">
        <ele>15</ele>
        <time>2023-10-26T09:19:51Z</time>
      </trkpt>
      <trkpt lat="47.35182" lon="-1.56993">
        <ele>16</ele>
        <time>2023-10-26T09:20:37Z</time>
      </trkpt>
      <trkpt lat="47.35183" lon="-1.5702">
        <ele>17</ele>
        <time>2023-10-26T09:21:02Z</time>
      </trkpt>
      <trkpt lat="47.35185" lon="-1.57036">
        <ele>17</ele>
        <time>2023-10-26T09:21:16Z</time>
      </trkpt>
      <trkpt lat="47.35192" lon="-1.57059">
        <ele>17</ele>
        <time>2023-10-26T09:21:39Z</time>
      </trkpt>
      <trkpt lat="47.35198" lon="-1.57112">
        <ele>16</ele>
        <time>2023-10-26T09:22:28Z</time>
      </trkpt>
      <trkpt lat="47.35193" lon="-1.57132">
        <ele>17</ele>
        <time>2023-10-26T09:22:47Z</time>
      </trkpt>
      <trkpt lat="47.35184" lon="-1.57155">
        <ele>18</ele>
        <time>2023-10-26T09:23:11Z</time>
      </trkpt>
      <trkpt lat="47.35172" lon="-1.57173">
        <ele>19</ele>
        <time>2023-10-26T09:23:34Z</time>
      </trkpt>
      <trkpt lat="47.35162" lon="-1.57191">
        <ele>20</ele>
        <time>2023-10-26T09:23:55Z</time>
      </trkpt>
      <trkpt lat="47.35159" lon="-1.57194">
        <ele>20</ele>
        <time>2023-10-26T09:24:00Z</time>
      </trkpt>
      <trkpt lat="47.35149" lon="-1.57216">
        <ele>21</ele>
        <time>2023-10-26T09:24:24Z</time>
      </trkpt>
      <trkpt lat="47.35144" lon="-1.57248">
        <ele>21</ele>
        <time>2023-10-26T09:24:53Z</time>
      </trkpt>
      <trkpt lat="47.35139" lon="-1.57265">
        <ele>21</ele>
        <time>2023-10-26T09:25:10Z</time>
      </trkpt>
      <trkpt lat="47.35133" lon="-1.5727">
        <ele>21</ele>
        <time>2023-10-26T09:25:19Z</time>
      </trkpt>
      <trkpt lat="47.35144" lon="-1.57288">
        <ele>19</ele>
        <time>2023-10-26T09:25:41Z</time>
      </trkpt>
      <trkpt lat="47.35159" lon="-1.57305">
        <ele>17</ele>
        <time>2023-10-26T09:26:07Z</time>
      </trkpt>
      <trkpt lat="47.35188" lon="-1.57355">
        <ele>15</ele>
        <time>2023-10-26T09:27:06Z</time>
      </trkpt>
      <trkpt lat="47.35198" lon="-1.57369">
        <ele>15</ele>
        <time>2023-10-26T09:27:24Z</time>
      </trkpt>
      <trkpt lat="47.35231" lon="-1.57417">
        <ele>14</ele>
        <time>2023-10-26T09:28:26Z</time>
      </trkpt>
      <trkpt lat="47.3523" lon="-1.57427">
        <ele>14</ele>
        <time>2023-10-26T09:28:35Z</time>
      </trkpt>
      <trkpt lat="47.35223" lon="-1.57433">
        <ele>13</ele>
        <time>2023-10-26T09:28:46Z</time>
      </trkpt>
      <trkpt lat="47.35213" lon="-1.57436">
        <ele>13</ele>
        <time>2023-10-26T09:29:00Z</time>
      </trkpt>
      <trkpt lat="47.35212" lon="-1.57438">
        <ele>13</ele>
        <time>2023-10-26T09:29:02Z</time>
      </trkpt>
      <trkpt lat="47.35183" lon="-1.57442">
        <ele>14</ele>
        <time>2023-10-26T09:29:41Z</time>
      </trkpt>
      <trkpt lat="47.35084" lon="-1.57468">
        <ele>19</ele>
        <time>2023-10-26T09:31:55Z</time>
      </trkpt>
      <trkpt lat="47.3506" lon="-1.57471">
        <ele>22</ele>
        <time>2023-10-26T09:32:27Z</time>
      </trkpt>
      <trkpt lat="47.35028" lon="-1.57481">
        <ele>27</ele>
        <time>2023-10-26T09:33:11Z</time>
      </trkpt>
      <trkpt lat="47.34988" lon="-1.57518">
        <ele>32</ele>
        <time>2023-10-26T09:34:14Z</time>
      </trkpt>
      <trkpt lat="47.34959" lon="-1.57551">
        <ele>34</ele>
        <time>2023-10-26T09:35:03Z</time>
      </trkpt>
      <trkpt lat="47.34942" lon="-1.57568">
        <ele>35</ele>
        <time>2023-10-26T09:35:30Z</time>
      </trkpt>
      <trkpt lat="47.34931" lon="-1.5759">
        <ele>36</ele>
        <time>2023-10-26T09:35:55Z</time>
      </trkpt>
      <trkpt lat="47.34853" lon="-1.57702">
        <ele>38</ele>
        <time>2023-10-26T09:38:20Z</time>
      </trkpt>
      <trkpt lat="47.34791" lon="-1.57788">
        <ele>40</ele>
        <time>2023-10-26T09:40:14Z</time>
      </trkpt>
      <trkpt lat="47.3476" lon="-1.57839">
        <ele>42</ele>
        <time>2023-10-26T09:41:16Z</time>
      </trkpt>
      <trkpt lat="47.3471" lon="-1.57908">
        <ele>42</ele>
        <time>2023-10-26T09:42:47Z</time>
      </trkpt>
      <trkpt lat="47.34662" lon="-1.57981">
        <ele>43</ele>
        <time>2023-10-26T09:44:19Z</time>
      </trkpt>
      <trkpt lat="47.34652" lon="-1.57987">
        <ele>43</ele>
        <time>2023-10-26T09:44:33Z</time>
      </trkpt>
      <trkpt lat="47.34593" lon="-1.58068">
        <ele>43</ele>
        <time>2023-10-26T09:46:21Z</time>
      </trkpt>
      <trkpt lat="47.34523" lon="-1.5818">
        <ele>44</ele>
        <time>2023-10-26T09:48:39Z</time>
      </trkpt>
      <trkpt lat="47.34494" lon="-1.5822">
        <ele>46</ele>
        <time>2023-10-26T09:49:32Z</time>
      </trkpt>
      <trkpt lat="47.34468" lon="-1.58267">
        <ele>46</ele>
        <time>2023-10-26T09:50:27Z</time>
      </trkpt>
      <trkpt lat="47.34435" lon="-1.58307">
        <ele>47</ele>
        <time>2023-10-26T09:51:24Z</time>
      </trkpt>
      <trkpt lat="47.34422" lon="-1.58332">
        <ele>48</ele>
        <time>2023-10-26T09:51:52Z</time>
      </trkpt>
      <trkpt lat="47.3437" lon="-1.58408">
        <ele>45</ele>
        <time>2023-10-26T09:53:30Z</time>
      </trkpt>
      <trkpt lat="47.3435" lon="-1.58433">
        <ele>45</ele>
        <time>2023-10-26T09:54:05Z</time>
      </trkpt>
      <trkpt lat="47.34333" lon="-1.58463">
        <ele>45</ele>
        <time>2023-10-26T09:54:40Z</time>
      </trkpt>
      <trkpt lat="47.3433" lon="-1.58474">
        <ele>45</ele>
        <time>2023-10-26T09:54:51Z</time>
      </trkpt>
      <trkpt lat="47.34307" lon="-1.585">
        <ele>45</ele>
        <time>2023-10-26T09:55:29Z</time>
      </trkpt>
      <trkpt lat="47.34293" lon="-1.5852">
        <ele>45</ele>
        <time>2023-10-26T09:55:55Z</time>
      </trkpt>
      <trkpt lat="47.34269" lon="-1.58563">
        <ele>46</ele>
        <time>2023-10-26T09:56:46Z</time>
      </trkpt>
      <trkpt lat="47.34243" lon="-1.58592">
        <ele>47</ele>
        <time>2023-10-26T09:57:29Z</time>
      </trkpt>
      <trkpt lat="47.34223" lon="-1.58624">
        <ele>46</ele>
        <time>2023-10-26T09:58:09Z</time>
      </trkpt>
      <trkpt lat="47.34196" lon="-1.58666">
        <ele>46</ele>
        <time>2023-10-26T09:59:01Z</time>
      </trkpt>
      <trkpt lat="47.34186" lon="-1.58674">
        <ele>46</ele>
        <time>2023-10-26T09:59:16Z</time>
      </trkpt>
      <trkpt lat="47.3413" lon="-1.58762">
        <ele>45</ele>
        <time>2023-10-26T10:01:05Z</time>
      </trkpt>
      <trkpt lat="47.34104" lon="-1.588">
        <ele>45</ele>
        <time>2023-10-26T10:01:54Z</time>
      </trkpt>
      <trkpt lat="47.34056" lon="-1.58873">
        <ele>45</ele>
        <time>2023-10-26T10:03:26Z</time>
      </trkpt>
      <trkpt lat="47.34052" lon="-1.58876">
        <ele>45</ele>
        <time>2023-10-26T10:03:32Z</time>
      </trkpt>
      <trkpt lat="47.34006" lon="-1.58945">
        <ele>46</ele>
        <time>2023-10-26T10:05:00Z</time>
      </trkpt>
      <trkpt lat="47.33993" lon="-1.58969">
        <ele>47</ele>
        <time>2023-10-26T10:05:27Z</time>
      </trkpt>
      <trkpt lat="47.33973" lon="-1.58994">
        <ele>47</ele>
        <time>2023-10-26T10:06:02Z</time>
      </trkpt>
      <trkpt lat="47.33884" lon="-1.59127">
        <ele>49</ele>
        <time>2023-10-26T10:08:51Z</time>
      </trkpt>
      <trkpt lat="47.33859" lon="-1.59159">
        <ele>49</ele>
        <time>2023-10-26T10:09:36Z</time>
      </trkpt>
      <trkpt lat="47.3383" lon="-1.5921">
        <ele>50</ele>
        <time>2023-10-26T10:10:36Z</time>
      </trkpt>
      <trkpt lat="47.33816" lon="-1.59228">
        <ele>50</ele>
        <time>2023-10-26T10:11:01Z</time>
      </trkpt>
      <trkpt lat="47.33801" lon="-1.59257">
        <ele>51</ele>
        <time>2023-10-26T10:11:34Z</time>
      </trkpt>
      <trkpt lat="47.33733" lon="-1.59354">
        <ele>52</ele>
        <time>2023-10-26T10:13:40Z</time>
      </trkpt>
      <trkpt lat="47.337" lon="-1.59419">
        <ele>53</ele>
        <time>2023-10-26T10:14:53Z</time>
      </trkpt>
      <trkpt lat="47.3369" lon="-1.59428">
        <ele>54</ele>
        <time>2023-10-26T10:15:09Z</time>
      </trkpt>
      <trkpt lat="47.33671" lon="-1.59452">
        <ele>55</ele>
        <time>2023-10-26T10:15:42Z</time>
      </trkpt>
      <trkpt lat="47.3366" lon="-1.59457">
        <ele>55</ele>
        <time>2023-10-26T10:15:58Z</time>
      </trkpt>
      <trkpt lat="47.33642" lon="-1.59458">
        <ele>55</ele>
        <time>2023-10-26T10:16:22Z</time>
      </trkpt>
      <trkpt lat="47.33638" lon="-1.59457">
        <ele>55</ele>
        <time>2023-10-26T10:16:27Z</time>
      </trkpt>
      <trkpt lat="47.33613" lon="-1.59409">
        <ele>55</ele>
        <time>2023-10-26T10:17:22Z</time>
      </trkpt>
      <trkpt lat="47.33605" lon="-1.59388">
        <ele>55</ele>
        <time>2023-10-26T10:17:44Z</time>
      </trkpt>
      <trkpt lat="47.33555" lon="-1.59283">
        <ele>54</ele>
        <time>2023-10-26T10:19:40Z</time>
      </trkpt>
      <trkpt lat="47.3353" lon="-1.59237">
        <ele>53</ele>
        <time>2023-10-26T10:20:33Z</time>
      </trkpt>
      <trkpt lat="47.33466" lon="-1.59108">
        <ele>50</ele>
        <time>2023-10-26T10:22:58Z</time>
      </trkpt>
      <trkpt lat="47.33432" lon="-1.59032">
        <ele>48</ele>
        <time>2023-10-26T10:24:20Z</time>
      </trkpt>
      <trkpt lat="47.33414" lon="-1.59006">
        <ele>47</ele>
        <time>2023-10-26T10:24:54Z</time>
      </trkpt>
      <trkpt lat="47.33364" lon="-1.58895">
        <ele>42</ele>
        <time>2023-10-26T10:26:54Z</time>
      </trkpt>
      <trkpt lat="47.33333" lon="-1.58838">
        <ele>41</ele>
        <time>2023-10-26T10:28:00Z</time>
      </trkpt>
      <trkpt lat="47.33311" lon="-1.58789">
        <ele>40</ele>
        <time>2023-10-26T10:28:53Z</time>
      </trkpt>
      <trkpt lat="47.33293" lon="-1.5876">
        <ele>41</ele>
        <time>2023-10-26T10:29:29Z</time>
      </trkpt>
      <trkpt lat="47.33285" lon="-1.58739">
        <ele>41</ele>
        <time>2023-10-26T10:29:51Z</time>
      </trkpt>
      <trkpt lat="47.33267" lon="-1.58704">
        <ele>41</ele>
        <time>2023-10-26T10:30:30Z</time>
      </trkpt>
      <trkpt lat="47.33252" lon="-1.58661">
        <ele>41</ele>
        <time>2023-10-26T10:31:14Z</time>
      </trkpt>
      <trkpt lat="47.33234" lon="-1.58616">
        <ele>41</ele>
        <time>2023-10-26T10:32:01Z</time>
      </trkpt>
      <trkpt lat="47.33192" lon="-1.58533">
        <ele>41</ele>
        <time>2023-10-26T10:33:35Z</time>
      </trkpt>
      <trkpt lat="47.33179" lon="-1.58526">
        <ele>42</ele>
        <time>2023-10-26T10:33:54Z</time>
      </trkpt>
      <trkpt lat="47.33178" lon="-1.58518">
        <ele>42</ele>
        <time>2023-10-26T10:34:01Z</time>
      </trkpt>
      <trkpt lat="47.33179" lon="-1.58525">
        <ele>42</ele>
        <time>2023-10-26T10:34:07Z</time>
      </trkpt>
      <trkpt lat="47.33184" lon="-1.58529">
        <ele>41</ele>
        <time>2023-10-26T10:34:15Z</time>
      </trkpt>
      <trkpt lat="47.3321" lon="-1.5848">
        <ele>40</ele>
        <time>2023-10-26T10:35:11Z</time>
      </trkpt>
      <trkpt lat="47.33242" lon="-1.58401">
        <ele>37</ele>
        <time>2023-10-26T10:36:35Z</time>
      </trkpt>
      <trkpt lat="47.33265" lon="-1.58348">
        <ele>36</ele>
        <time>2023-10-26T10:37:31Z</time>
      </trkpt>
      <trkpt lat="47.33301" lon="-1.58276">
        <ele>34</ele>
        <time>2023-10-26T10:38:52Z</time>
      </trkpt>
      <trkpt lat="47.3331" lon="-1.58253">
        <ele>34</ele>
        <time>2023-10-26T10:39:16Z</time>
      </trkpt>
      <trkpt lat="47.33329" lon="-1.58218">
        <ele>32</ele>
        <time>2023-10-26T10:39:57Z</time>
      </trkpt>
      <trkpt lat="47.33341" lon="-1.58182">
        <ele>31</ele>
        <time>2023-10-26T10:40:33Z</time>
      </trkpt>
      <trkpt lat="47.33385" lon="-1.58088">
        <ele>29</ele>
        <time>2023-10-26T10:42:17Z</time>
      </trkpt>
      <trkpt lat="47.33415" lon="-1.58014">
        <ele>28</ele>
        <time>2023-10-26T10:43:35Z</time>
      </trkpt>
      <trkpt lat="47.3342" lon="-1.58007">
        <ele>28</ele>
        <time>2023-10-26T10:43:44Z</time>
      </trkpt>
      <trkpt lat="47.33428" lon="-1.57989">
        <ele>28</ele>
        <time>2023-10-26T10:44:03Z</time>
      </trkpt>
      <trkpt lat="47.33445" lon="-1.5796">
        <ele>29</ele>
        <time>2023-10-26T10:44:38Z</time>
      </trkpt>
      <trkpt lat="47.33463" lon="-1.57952">
        <ele>29</ele>
        <time>2023-10-26T10:45:03Z</time>
      </trkpt>
      <trkpt lat="47.33483" lon="-1.57954">
        <ele>30</ele>
        <time>2023-10-26T10:45:30Z</time>
      </trkpt>
      <trkpt lat="47.335" lon="-1.57943">
        <ele>30</ele>
        <time>2023-10-26T10:45:54Z</time>
      </trkpt>
      <trkpt lat="47.33519" lon="-1.57938">
        <ele>31</ele>
        <time>2023-10-26T10:46:20Z</time>
      </trkpt>
      <trkpt lat="47.3356" lon="-1.57907">
        <ele>33</ele>
        <time>2023-10-26T10:47:22Z</time>
      </trkpt>
      <trkpt lat="47.33572" lon="-1.57893">
        <ele>35</ele>
        <time>2023-10-26T10:47:42Z</time>
      </trkpt>
      <trkpt lat="47.33599" lon="-1.57855">
        <ele>37</ele>
        <time>2023-10-26T10:48:32Z</time>
      </trkpt>
      <trkpt lat="47.33624" lon="-1.57807">
        <ele>40</ele>
        <time>2023-10-26T10:49:27Z</time>
      </trkpt>
      <trkpt lat="47.33642" lon="-1.57776">
        <ele>41</ele>
        <time>2023-10-26T10:50:04Z</time>
      </trkpt>
      <trkpt lat="47.33647" lon="-1.57773">
        <ele>42</ele>
        <time>2023-10-26T10:50:11Z</time>
      </trkpt>
      <trkpt lat="47.33655" lon="-1.57757">
        <ele>42</ele>
        <time>2023-10-26T10:50:29Z</time>
      </trkpt>
      <trkpt lat="47.33668" lon="-1.5774">
        <ele>43</ele>
        <time>2023-10-26T10:50:52Z</time>
      </trkpt>
      <trkpt lat="47.3367" lon="-1.57734">
        <ele>43</ele>
        <time>2023-10-26T10:50:58Z</time>
      </trkpt>
      <trkpt lat="47.33677" lon="-1.57726">
        <ele>43</ele>
        <time>2023-10-26T10:51:10Z</time>
      </trkpt>
      <trkpt lat="47.33708" lon="-1.57699">
        <ele>42</ele>
        <time>2023-10-26T10:51:58Z</time>
      </trkpt>
      <trkpt lat="47.33731" lon="-1.57672">
        <ele>42</ele>
        <time>2023-10-26T10:52:37Z</time>
      </trkpt>
      <trkpt lat="47.33744" lon="-1.57646">
        <ele>42</ele>
        <time>2023-10-26T10:53:06Z</time>
      </trkpt>
      <trkpt lat="47.33745" lon="-1.57639">
        <ele>42</ele>
        <time>2023-10-26T10:53:13Z</time>
      </trkpt>
      <trkpt lat="47.33752" lon="-1.57622">
        <ele>42</ele>
        <time>2023-10-26T10:53:31Z</time>
      </trkpt>
      <trkpt lat="47.3375" lon="-1.57597">
        <ele>42</ele>
        <time>2023-10-26T10:53:54Z</time>
      </trkpt>
      <trkpt lat="47.33756" lon="-1.57564">
        <ele>42</ele>
        <time>2023-10-26T10:54:24Z</time>
      </trkpt>
      <trkpt lat="47.33791" lon="-1.57506">
        <ele>42</ele>
        <time>2023-10-26T10:55:35Z</time>
      </trkpt>
      <trkpt lat="47.33818" lon="-1.57451">
        <ele>41</ele>
        <time>2023-10-26T10:56:36Z</time>
      </trkpt>
      <trkpt lat="47.33828" lon="-1.57441">
        <ele>41</ele>
        <time>2023-10-26T10:56:52Z</time>
      </trkpt>
      <trkpt lat="47.3386" lon="-1.5738">
        <ele>39</ele>
        <time>2023-10-26T10:58:02Z</time>
      </trkpt>
      <trkpt lat="47.33913" lon="-1.57242">
        <ele>35</ele>
        <time>2023-10-26T11:00:25Z</time>
      </trkpt>
      <trkpt lat="47.33915" lon="-1.57222">
        <ele>35</ele>
        <time>2023-10-26T11:00:44Z</time>
      </trkpt>
      <trkpt lat="47.3389" lon="-1.57207">
        <ele>36</ele>
        <time>2023-10-26T11:01:20Z</time>
      </trkpt>
      <trkpt lat="47.33782" lon="-1.57173">
        <ele>38</ele>
        <time>2023-10-26T11:03:47Z</time>
      </trkpt>
      <trkpt lat="47.33771" lon="-1.57172">
        <ele>38</ele>
        <time>2023-10-26T11:04:02Z</time>
      </trkpt>
    </trkseg>
  </trk>
</gpx>